createdAt,value
2018-07-19T00:01:34.641Z,53.18
2018-07-19T00:04:03.193Z,53.87
2018-07-19T00:06:31.861Z,53.21
2018-07-19T00:09:00.485Z,53.25
2018-07-19T00:11:28.981Z,53.93
2018-07-19T00:13:57.569Z,54.00
2018-07-19T00:16:26.138Z,53.85
2018-07-19T00:18:54.683Z,53.63
2018-07-19T00:21:23.256Z,54.32
2018-07-19T00:23:51.788Z,54.71
2018-07-19T00:26:20.752Z,54.71
2018-07-19T00:28:49.263Z,54.34
2018-07-19T00:31:17.788Z,54.53
2018-07-19T00:33:46.354Z,54.78
2018-07-19T00:36:15.109Z,55.32
2018-07-19T00:38:43.666Z,54.93
2018-07-19T00:41:12.261Z,54.72
2018-07-19T00:43:40.786Z,54.61
2018-07-19T00:46:09.367Z,55.46
2018-07-19T00:48:37.927Z,55.34
2018-07-19T00:51:06.743Z,54.82
2018-07-19T00:53:35.264Z,54.46
2018-07-19T00:56:03.954Z,54.34
2018-07-19T00:58:32.529Z,54.67
2018-07-19T01:01:01.054Z,54.99
2018-07-19T01:03:29.561Z,54.79
2018-07-19T01:05:58.136Z,55.26
2018-07-19T01:08:26.668Z,55.44
2018-07-19T01:10:55.160Z,55.47
2018-07-19T01:13:23.689Z,55.84
2018-07-19T01:15:52.714Z,55.80
2018-07-19T01:18:21.333Z,55.57
2018-07-19T01:20:49.858Z,55.94
2018-07-19T01:23:18.406Z,55.97
2018-07-19T01:25:46.998Z,56.78
2018-07-19T01:28:15.565Z,57.09
2018-07-19T01:30:44.084Z,56.36
2018-07-19T01:33:12.620Z,56.22
2018-07-19T01:35:41.213Z,56.60
2018-07-19T01:38:09.754Z,56.91
2018-07-19T01:40:38.325Z,56.91
2018-07-19T01:43:06.931Z,56.93
2018-07-19T01:45:35.708Z,56.57
2018-07-19T01:48:04.417Z,57.07
2018-07-19T01:50:32.959Z,57.41
2018-07-19T01:53:01.427Z,57.75
2018-07-19T01:55:30.066Z,57.22
2018-07-19T01:57:58.565Z,57.50
2018-07-19T02:00:27.053Z,57.42
2018-07-19T02:02:55.629Z,58.17
2018-07-19T02:05:24.155Z,58.92
2018-07-19T02:07:52.999Z,58.88
2018-07-19T02:10:21.564Z,57.73
2018-07-19T02:12:50.128Z,57.19
2018-07-19T02:15:18.813Z,57.57
2018-07-19T02:17:47.334Z,57.64
2018-07-19T02:20:15.873Z,58.52
2018-07-19T02:22:44.483Z,58.61
2018-07-19T02:25:13.039Z,58.58
2018-07-19T02:27:41.610Z,58.24
2018-07-19T02:30:10.495Z,58.53
2018-07-19T02:32:39.048Z,58.56
2018-07-19T02:35:08.037Z,59.77
2018-07-19T02:37:36.646Z,58.69
2018-07-19T02:40:05.639Z,59.63
2018-07-19T02:42:34.201Z,59.62
2018-07-19T02:45:02.770Z,60.39
2018-07-19T02:47:31.629Z,60.71
2018-07-19T02:50:00.151Z,60.25
2018-07-19T02:52:28.652Z,60.81
2018-07-19T02:54:57.221Z,61.59
2018-07-19T02:57:25.737Z,61.09
2018-07-19T02:59:54.899Z,60.77
2018-07-19T03:02:23.754Z,60.62
2018-07-19T03:04:52.273Z,59.79
2018-07-19T03:07:20.856Z,59.78
2018-07-19T03:09:49.580Z,61.38
2018-07-19T03:12:18.141Z,61.54
2018-07-19T03:14:46.731Z,61.60
2018-07-19T03:17:16.261Z,60.42
2018-07-19T03:19:44.788Z,60.65
2018-07-19T03:22:13.444Z,60.25
2018-07-19T03:24:42.001Z,60.24
2018-07-19T03:27:10.959Z,61.07
2018-07-19T03:29:39.683Z,60.41
2018-07-19T03:32:08.216Z,60.04
2018-07-19T03:34:36.811Z,60.35
2018-07-19T03:37:05.803Z,59.91
2018-07-19T03:39:34.310Z,60.00
2018-07-19T03:42:02.815Z,60.95
2018-07-19T03:44:31.591Z,60.56
2018-07-19T03:47:00.166Z,61.31
2018-07-19T03:49:28.716Z,61.65
2018-07-19T03:51:57.634Z,61.73
2018-07-19T03:54:26.158Z,61.96
2018-07-19T03:56:54.758Z,61.39
2018-07-19T03:59:23.287Z,61.66
2018-07-19T04:01:51.882Z,60.76
2018-07-19T04:04:20.474Z,60.43
2018-07-19T04:06:48.986Z,60.67
2018-07-19T04:09:17.531Z,60.42
2018-07-19T04:11:46.137Z,60.12
2018-07-19T04:14:14.722Z,60.10
2018-07-19T04:16:50.038Z,61.36
2018-07-19T04:19:18.689Z,61.04
2018-07-19T04:21:47.193Z,59.36
2018-07-19T04:24:16.069Z,58.33
2018-07-19T04:26:44.647Z,57.92
2018-07-19T04:29:13.124Z,58.14
2018-07-19T04:31:41.714Z,57.92
2018-07-19T04:34:10.262Z,58.87
2018-07-19T04:36:38.793Z,58.57
2018-07-19T04:39:08.846Z,58.42
2018-07-19T04:41:37.598Z,59.29
2018-07-19T04:44:07.035Z,59.16
2018-07-19T04:46:35.569Z,59.26
2018-07-19T04:49:04.099Z,59.05
2018-07-19T04:51:32.774Z,58.48
2018-07-19T04:54:01.315Z,56.27
2018-07-19T04:56:29.848Z,56.24
2018-07-19T04:58:58.379Z,56.53
2018-07-19T05:01:26.893Z,56.54
2018-07-19T05:03:55.675Z,56.36
2018-07-19T05:06:24.226Z,56.89
2018-07-19T05:08:52.797Z,57.69
2018-07-19T05:11:21.318Z,56.91
2018-07-19T05:13:49.891Z,56.38
2018-07-19T05:16:18.486Z,57.65
2018-07-19T05:20:16.091Z,56.88
2018-07-19T05:22:45.048Z,56.05
2018-07-19T05:25:13.637Z,56.19
2018-07-19T05:27:42.208Z,56.47
2018-07-19T05:30:10.799Z,56.40
2018-07-19T05:32:39.382Z,55.52
2018-07-19T05:35:07.935Z,56.44
2018-07-19T05:37:36.495Z,56.02
2018-07-19T05:40:05.543Z,56.19
2018-07-19T05:42:34.083Z,56.41
2018-07-19T05:45:02.577Z,56.58
2018-07-19T05:47:31.163Z,56.41
2018-07-19T05:50:00.166Z,54.90
2018-07-19T05:52:28.680Z,53.85
2018-07-19T05:54:57.206Z,53.67
2018-07-19T05:57:25.718Z,54.29
2018-07-19T05:59:54.322Z,54.21
2018-07-19T06:02:22.873Z,54.38
2018-07-19T06:04:51.408Z,54.59
2018-07-19T06:07:19.917Z,52.63
2018-07-19T06:09:49.163Z,51.99
2018-07-19T06:12:17.689Z,52.51
2018-07-19T06:14:46.237Z,54.49
2018-07-19T06:17:14.989Z,54.39
2018-07-19T06:19:43.580Z,53.92
2018-07-19T06:22:12.150Z,52.72
2018-07-19T06:24:41.082Z,51.51
2018-07-19T06:27:09.647Z,51.56
2018-07-19T06:29:38.974Z,51.79
2018-07-19T06:32:07.606Z,51.72
2018-07-19T06:34:36.223Z,52.14
2018-07-19T06:37:04.938Z,51.88
2018-07-19T06:39:33.549Z,53.18
2018-07-19T06:42:02.054Z,52.00
2018-07-19T06:44:30.868Z,52.89
2018-07-19T06:46:59.542Z,51.35
2018-07-19T06:49:28.483Z,51.53
2018-07-19T06:51:57.379Z,50.63
2018-07-19T06:54:25.891Z,49.74
2018-07-19T06:56:54.552Z,51.81
2018-07-19T06:59:23.227Z,51.08
2018-07-19T07:01:51.783Z,50.62
2018-07-19T07:04:20.491Z,50.40
2018-07-19T07:06:49.129Z,48.01
2018-07-19T07:09:17.733Z,49.28
2018-07-19T07:11:46.280Z,49.05
2018-07-19T07:14:14.830Z,48.07
2018-07-19T07:16:43.509Z,47.73
2018-07-19T07:19:12.047Z,47.14
2018-07-19T07:21:40.574Z,48.67
2018-07-19T07:24:09.220Z,47.91
2018-07-19T07:26:37.937Z,47.95
2018-07-19T07:29:07.212Z,48.94
2018-07-19T07:31:36.215Z,48.90
2018-07-19T07:34:04.791Z,48.77
2018-07-19T07:36:33.446Z,48.07
2018-07-19T07:39:02.252Z,47.21
2018-07-19T07:41:30.750Z,47.04
2018-07-19T07:43:59.402Z,46.08
2018-07-19T07:46:27.945Z,46.19
2018-07-19T07:48:56.496Z,47.18
2018-07-19T07:51:25.014Z,47.50
2018-07-19T07:53:53.670Z,46.80
2018-07-19T07:56:22.186Z,48.11
2018-07-19T07:58:50.803Z,47.91
2018-07-19T08:01:19.892Z,47.82
2018-07-19T08:03:48.577Z,44.92
2018-07-19T08:06:17.109Z,44.61
2018-07-19T08:08:45.738Z,45.34
2018-07-19T08:11:14.267Z,43.97
2018-07-19T08:13:42.915Z,45.02
2018-07-19T08:16:11.473Z,44.09
2018-07-19T08:18:40.101Z,44.50
2018-07-19T08:21:08.622Z,44.68
2018-07-19T08:23:37.206Z,45.13
2018-07-19T08:26:06.028Z,44.66
2018-07-19T08:28:34.554Z,45.27
2018-07-19T08:31:03.469Z,43.89
2018-07-19T08:33:32.084Z,44.82
2018-07-19T08:36:00.709Z,45.63
2018-07-19T08:38:29.768Z,45.50
2018-07-19T08:40:58.278Z,43.78
2018-07-19T08:43:26.905Z,42.48
2018-07-19T08:45:55.471Z,41.44
2018-07-19T08:48:24.077Z,42.14
2018-07-19T08:50:52.649Z,41.96
2018-07-19T08:53:21.299Z,42.93
2018-07-19T08:55:50.035Z,42.25
2018-07-19T08:58:18.566Z,42.23
2018-07-19T09:00:47.134Z,41.99
2018-07-19T09:03:15.882Z,40.52
2018-07-19T09:05:44.701Z,42.78
2018-07-19T09:08:13.292Z,41.96
2018-07-19T09:10:41.853Z,41.79
2018-07-19T09:13:10.454Z,40.95
2018-07-19T09:15:39.102Z,41.41
2018-07-19T09:18:07.971Z,39.84
2018-07-19T09:20:36.841Z,38.29
2018-07-19T09:23:05.408Z,40.02
2018-07-19T09:25:34.014Z,38.75
2018-07-19T09:28:02.545Z,38.21
2018-07-19T09:30:31.138Z,38.79
2018-07-19T09:32:59.666Z,38.24
2018-07-19T09:35:29.402Z,38.73
2018-07-19T09:37:57.994Z,38.50
2018-07-19T09:40:26.523Z,37.90
2018-07-19T09:42:55.162Z,39.43
2018-07-19T09:45:23.697Z,39.99
2018-07-19T09:47:52.238Z,38.99
2018-07-19T09:50:20.878Z,37.78
2018-07-19T09:52:49.386Z,39.27
2018-07-19T09:55:18.175Z,38.45
2018-07-19T09:57:46.803Z,36.75
2018-07-19T10:00:19.516Z,34.70
2018-07-19T10:02:48.054Z,36.37
2018-07-19T10:05:16.588Z,36.46
2018-07-19T10:07:45.245Z,37.23
2018-07-19T10:10:13.848Z,37.05
2018-07-19T10:12:42.357Z,37.51
2018-07-19T10:15:11.619Z,36.58
2018-07-19T10:17:40.217Z,37.18
2018-07-19T10:20:08.784Z,36.79
2018-07-19T10:22:37.359Z,36.98
2018-07-19T10:25:05.926Z,36.85
2018-07-19T10:27:34.467Z,35.79
2018-07-19T10:30:02.987Z,36.79
2018-07-19T10:32:31.572Z,37.31
2018-07-19T10:35:00.151Z,36.56
2018-07-19T10:37:29.232Z,34.36
2018-07-19T10:39:58.835Z,35.53
2018-07-19T10:42:27.860Z,36.05
2018-07-19T10:44:56.395Z,36.64
2018-07-19T10:47:24.930Z,37.26
2018-07-19T10:49:53.705Z,36.50
2018-07-19T10:52:22.249Z,35.60
2018-07-19T10:54:50.742Z,36.08
2018-07-19T10:57:19.569Z,35.14
2018-07-19T10:59:48.289Z,34.34
2018-07-19T11:02:16.900Z,34.86
2018-07-19T11:04:45.397Z,34.31
2018-07-19T11:07:13.905Z,35.47
2018-07-19T11:09:42.618Z,35.35
2018-07-19T11:12:11.460Z,35.62
2018-07-19T11:14:40.190Z,34.55
2018-07-19T11:17:08.901Z,35.62
2018-07-19T11:19:37.422Z,34.95
2018-07-19T11:22:06.061Z,35.26
2018-07-19T11:24:34.621Z,34.75
2018-07-19T11:27:03.153Z,34.84
2018-07-19T11:29:31.700Z,36.03
2018-07-19T11:32:00.342Z,35.52
2018-07-19T11:34:28.972Z,35.91
2018-07-19T11:36:57.501Z,35.24
2018-07-19T11:39:25.998Z,35.98
2018-07-19T11:41:55.801Z,35.40
2018-07-19T11:44:24.422Z,35.49
2018-07-19T11:46:52.990Z,35.34
2018-07-19T11:49:21.519Z,35.69
2018-07-19T11:51:50.065Z,34.64
2018-07-19T11:54:18.596Z,34.88
2018-07-19T11:56:47.201Z,34.73
2018-07-19T11:59:15.834Z,35.18
2018-07-19T12:01:44.432Z,34.89
2018-07-19T12:04:13.081Z,33.91
2018-07-19T12:06:41.642Z,35.06
2018-07-19T12:09:11.398Z,33.86
2018-07-19T12:11:40.162Z,33.86
2018-07-19T12:14:08.925Z,33.09
2018-07-19T12:16:37.587Z,32.74
2018-07-19T12:19:06.636Z,33.60
2018-07-19T12:21:35.195Z,34.47
2018-07-19T12:24:03.762Z,33.00
2018-07-19T12:26:32.302Z,32.94
2018-07-19T12:29:01.200Z,33.80
2018-07-19T12:31:29.838Z,34.37
2018-07-19T12:33:58.585Z,35.07
2018-07-19T12:36:27.249Z,33.47
2018-07-19T12:38:55.747Z,32.74
2018-07-19T12:41:24.273Z,34.52
2018-07-19T12:43:53.013Z,33.37
2018-07-19T12:46:21.577Z,31.55
2018-07-19T12:48:50.136Z,31.71
2018-07-19T12:51:18.639Z,33.94
2018-07-19T12:53:47.171Z,34.74
2018-07-19T12:56:16.542Z,34.10
2018-07-19T12:58:45.093Z,35.05
2018-07-19T13:01:13.632Z,35.00
2018-07-19T13:03:42.185Z,33.08
2018-07-19T13:06:10.717Z,31.57
2018-07-19T13:08:39.251Z,31.64
2018-07-19T13:11:07.861Z,31.39
2018-07-19T13:13:37.236Z,31.99
2018-07-19T13:16:06.572Z,33.58
2018-07-19T13:18:35.313Z,33.03
2018-07-19T13:21:04.344Z,33.81
2018-07-19T13:23:32.942Z,32.96
2018-07-19T13:26:02.021Z,33.80
2018-07-19T13:28:30.544Z,33.08
2018-07-19T13:30:59.144Z,32.49
2018-07-19T13:33:27.705Z,33.81
2018-07-19T13:35:56.278Z,34.12
2018-07-19T13:38:24.834Z,33.44
2018-07-19T13:40:53.904Z,33.98
2018-07-19T13:43:22.671Z,33.34
2018-07-19T13:45:51.311Z,33.02
2018-07-19T13:48:19.873Z,33.73
2018-07-19T13:50:48.621Z,33.53
2018-07-19T13:53:39.674Z,33.48
2018-07-19T13:56:09.025Z,32.35
2018-07-19T13:58:38.449Z,32.52
2018-07-19T14:01:06.990Z,31.25
2018-07-19T14:03:35.603Z,33.18
2018-07-19T14:06:04.112Z,34.16
2018-07-19T14:08:32.665Z,34.21
2018-07-19T14:11:01.223Z,33.66
2018-07-19T14:13:29.806Z,33.38
2018-07-19T14:15:58.302Z,33.21
2018-07-19T14:18:26.893Z,32.94
2018-07-19T14:20:55.519Z,32.92
2018-07-19T14:23:24.110Z,32.87
2018-07-19T14:25:52.770Z,33.96
2018-07-19T14:28:21.310Z,33.05
2018-07-19T14:30:49.829Z,32.83
2018-07-19T14:33:18.414Z,33.22
2018-07-19T14:35:47.195Z,33.38
2018-07-19T14:38:15.780Z,33.82
2018-07-19T14:40:44.299Z,33.39
2018-07-19T14:43:12.836Z,33.85
2018-07-19T14:45:41.389Z,33.03
2018-07-19T14:48:10.356Z,33.10
2018-07-19T14:50:38.935Z,33.66
2018-07-19T14:53:07.610Z,33.81
2018-07-19T14:55:36.174Z,32.91
2018-07-19T14:58:04.682Z,33.01
2018-07-19T15:00:33.501Z,31.39
2018-07-19T15:03:02.036Z,31.04
2018-07-19T15:05:30.557Z,30.68
2018-07-19T15:07:59.090Z,31.04
2018-07-19T15:10:28.022Z,30.68
2018-07-19T15:12:56.845Z,31.67
2018-07-19T15:15:25.468Z,33.20
2018-07-19T15:17:54.031Z,32.26
2018-07-19T15:20:22.603Z,32.94
2018-07-19T15:22:51.132Z,33.42
2018-07-19T15:25:19.910Z,33.63
2018-07-19T15:27:48.449Z,33.72
2018-07-19T15:30:17.219Z,32.91
2018-07-19T15:32:45.709Z,33.23
2018-07-19T15:35:15.030Z,34.45
2018-07-19T15:37:44.050Z,33.83
2018-07-19T15:40:12.602Z,34.75
2018-07-19T15:42:41.435Z,34.58
2018-07-19T15:45:09.978Z,34.63
2018-07-19T15:47:38.930Z,33.97
2018-07-19T15:50:07.477Z,34.82
2018-07-19T15:52:36.056Z,34.11
2018-07-19T15:55:04.736Z,34.12
2018-07-19T15:57:33.394Z,33.34
2018-07-19T16:00:02.054Z,33.88
2018-07-19T16:02:30.661Z,33.19
2018-07-19T16:04:59.347Z,31.75
2018-07-19T16:07:27.890Z,32.23
2018-07-19T16:09:56.408Z,33.97
2018-07-19T16:12:25.620Z,33.62
2018-07-19T16:14:54.209Z,34.42
2018-07-19T16:17:22.965Z,32.96
2018-07-19T16:19:51.772Z,31.93
2018-07-19T16:22:21.016Z,32.95
2018-07-19T16:24:49.761Z,32.46
2018-07-19T16:27:18.504Z,33.23
2018-07-19T16:29:46.990Z,32.22
2018-07-19T16:32:16.386Z,31.18
2018-07-19T16:34:45.262Z,33.75
2018-07-19T16:37:13.771Z,34.77
2018-07-19T16:39:44.581Z,34.53
2018-07-19T16:42:13.297Z,35.29
2018-07-19T16:44:41.842Z,35.20
2018-07-19T16:47:10.431Z,34.61
2018-07-19T16:49:38.950Z,34.51
2018-07-19T16:52:07.685Z,35.10
2018-07-19T16:54:36.323Z,34.55
2018-07-19T16:57:05.152Z,34.20
2018-07-19T16:59:33.675Z,34.80
2018-07-19T17:02:02.169Z,33.33
2018-07-19T17:04:31.096Z,32.51
2018-07-19T17:06:59.608Z,34.41
2018-07-19T17:09:28.155Z,34.61
2018-07-19T17:11:56.887Z,35.48
2018-07-19T17:14:25.378Z,34.94
2018-07-19T17:16:53.932Z,35.73
2018-07-19T17:19:22.514Z,35.78
2018-07-19T17:21:51.039Z,36.28
2018-07-19T17:24:19.759Z,35.64
2018-07-19T17:26:48.309Z,35.05
2018-07-19T17:29:16.834Z,35.72
2018-07-19T17:31:45.384Z,35.30
2018-07-19T17:34:14.013Z,35.96
2018-07-19T17:36:42.533Z,35.55
2018-07-19T17:39:12.563Z,36.08
2018-07-19T17:41:42.026Z,36.19
2018-07-19T17:44:10.565Z,36.38
2018-07-19T17:46:39.050Z,36.45
2018-07-19T17:49:08.094Z,36.60
2018-07-19T17:51:36.596Z,37.06
2018-07-19T17:54:05.289Z,37.53
2018-07-19T17:56:34.059Z,37.82
2018-07-19T17:59:02.682Z,38.24
2018-07-19T18:01:31.309Z,37.93
2018-07-19T18:04:00.171Z,38.30
2018-07-19T18:06:28.837Z,38.45
2018-07-19T18:08:57.665Z,37.88
2018-07-19T18:11:26.446Z,38.57
2018-07-19T18:13:55.647Z,38.47
2018-07-19T18:16:24.255Z,39.01
2018-07-19T18:18:52.985Z,38.33
2018-07-19T18:21:21.663Z,38.73
2018-07-19T18:23:50.241Z,38.95
2018-07-19T18:26:19.588Z,38.57
2018-07-19T18:28:48.174Z,39.46
2018-07-19T18:31:16.679Z,39.36
2018-07-19T18:33:45.253Z,39.53
2018-07-19T18:36:14.051Z,39.83
2018-07-19T18:38:42.645Z,40.54
2018-07-19T18:41:12.996Z,40.44
2018-07-19T18:43:41.647Z,40.51
2018-07-19T18:46:10.227Z,40.66
2018-07-19T18:48:38.807Z,40.91
2018-07-19T18:51:07.271Z,41.63
2018-07-19T18:53:36.134Z,41.68
2018-07-19T18:56:04.712Z,41.57
2018-07-19T18:58:33.881Z,42.23
2018-07-19T19:01:02.585Z,42.19
2018-07-19T19:03:31.210Z,42.39
2018-07-19T19:05:59.935Z,43.00
2018-07-19T19:08:29.562Z,43.07
2018-07-19T19:10:58.142Z,43.39
2018-07-19T19:13:26.795Z,43.35
2018-07-19T19:15:56.369Z,43.22
2018-07-19T19:18:25.185Z,44.00
2018-07-19T19:20:54.016Z,44.52
2018-07-19T19:23:22.704Z,44.80
2018-07-19T19:25:51.369Z,45.59
2018-07-19T19:28:20.193Z,45.86
2018-07-19T19:30:48.756Z,46.89
2018-07-19T19:33:17.302Z,47.39
2018-07-19T19:35:45.988Z,47.56
2018-07-19T19:38:14.554Z,48.11
2018-07-19T19:40:43.224Z,48.59
2018-07-19T19:43:11.833Z,48.39
2018-07-19T19:45:40.982Z,49.08
2018-07-19T19:48:09.542Z,49.57
2018-07-19T19:50:38.091Z,49.61
2018-07-19T19:53:06.610Z,50.64
2018-07-19T19:55:35.223Z,50.83
2018-07-19T19:58:03.761Z,51.08
2018-07-19T20:00:33.003Z,51.03
2018-07-19T20:03:01.655Z,51.66
2018-07-19T20:05:30.174Z,51.95
2018-07-19T20:07:58.861Z,51.98
2018-07-19T20:10:27.410Z,52.10
2018-07-19T20:12:55.924Z,51.84
2018-07-19T20:15:24.502Z,52.16
2018-07-19T20:17:54.042Z,51.89
2018-07-19T20:20:22.540Z,52.04
2018-07-19T20:22:51.045Z,52.20
2018-07-19T20:25:19.838Z,51.98
2018-07-19T20:27:48.425Z,52.23
2018-07-19T20:30:16.923Z,52.05
2018-07-19T20:32:45.462Z,51.81
2018-07-19T20:35:14.141Z,51.85
2018-07-19T20:37:42.750Z,52.03
2018-07-19T20:40:11.254Z,51.94
2018-07-19T20:42:39.895Z,51.71
2018-07-19T20:45:08.548Z,52.23
2018-07-19T20:47:37.253Z,51.77
2018-07-19T20:50:05.779Z,51.71
2018-07-19T20:52:34.293Z,51.83
2018-07-19T20:55:02.799Z,51.92
2018-07-19T20:57:31.329Z,51.95
2018-07-19T20:59:59.828Z,51.96
2018-07-19T21:02:28.388Z,51.75
2018-07-19T21:04:56.983Z,51.86
2018-07-19T21:07:25.470Z,51.81
2018-07-19T21:09:54.039Z,52.00
2018-07-19T21:12:22.563Z,52.19
2018-07-19T21:14:51.037Z,51.84
2018-07-19T21:17:19.594Z,52.40
2018-07-19T21:19:48.056Z,52.17
2018-07-19T21:22:17.064Z,52.15
2018-07-19T21:24:45.771Z,52.23
2018-07-19T21:27:14.317Z,52.48
2018-07-19T21:29:42.977Z,52.40
2018-07-19T21:32:11.501Z,52.22
2018-07-19T21:34:41.630Z,52.34
2018-07-19T21:37:10.404Z,51.98
2018-07-19T21:39:39.098Z,52.23
2018-07-19T21:42:07.683Z,52.89
2018-07-19T21:44:37.426Z,52.22
2018-07-19T21:47:05.992Z,52.62
2018-07-19T21:49:34.521Z,52.28
2018-07-19T21:52:03.135Z,53.03
2018-07-19T21:54:31.825Z,52.86
2018-07-19T21:57:00.431Z,52.49
2018-07-19T21:59:28.956Z,52.81
2018-07-19T22:01:57.537Z,53.24
2018-07-19T22:04:26.064Z,53.12
2018-07-19T22:06:54.597Z,53.61
2018-07-19T22:09:23.578Z,53.63
2018-07-19T22:11:52.806Z,53.61
2018-07-19T22:14:21.432Z,53.10
2018-07-19T22:16:50.057Z,53.68
2018-07-19T22:19:18.614Z,53.55
2018-07-19T22:21:47.159Z,53.86
2018-07-19T22:24:15.722Z,53.46
2018-07-19T22:26:44.250Z,53.70
2018-07-19T22:29:12.851Z,53.99
2018-07-19T22:31:41.748Z,54.13
2018-07-19T22:34:10.314Z,54.38
2018-07-19T22:36:38.883Z,54.51
2018-07-19T22:39:10.566Z,54.79
2018-07-19T22:41:39.087Z,54.60
2018-07-19T22:44:07.755Z,55.17
2018-07-19T22:46:36.748Z,55.16
2018-07-19T22:49:05.608Z,55.35
2018-07-19T22:51:34.146Z,55.33
2018-07-19T22:54:02.779Z,55.38
2018-07-19T22:56:31.295Z,55.53
2018-07-19T22:59:00.189Z,55.25
2018-07-19T23:01:28.730Z,55.56
2018-07-19T23:03:57.347Z,55.79
2018-07-19T23:06:25.866Z,55.92
2018-07-19T23:08:54.519Z,56.06
2018-07-19T23:11:23.102Z,56.01
2018-07-19T23:13:51.681Z,56.38
2018-07-19T23:16:20.195Z,56.51
2018-07-19T23:18:48.730Z,56.31
2018-07-19T23:21:17.365Z,57.14
2018-07-19T23:23:45.873Z,56.92
2018-07-19T23:26:14.620Z,57.19
2018-07-19T23:28:43.223Z,57.47
2018-07-19T23:31:12.084Z,57.79
2018-07-19T23:33:40.690Z,58.03
2018-07-19T23:36:13.526Z,57.90
2018-07-19T23:38:48.639Z,58.66
2018-07-19T23:41:22.004Z,58.89
2018-07-19T23:43:54.395Z,59.21
2018-07-19T23:46:29.729Z,59.44
2018-07-19T23:49:02.402Z,59.38
2018-07-19T23:51:31.237Z,59.59
2018-07-19T23:54:00.134Z,59.68
2018-07-19T23:56:28.636Z,60.19
2018-07-19T23:58:57.270Z,60.33
